sensor_id;sensor_type;location;lat;lon;timestamp;P1;durP1;ratioP1;P2;durP2;ratioP2
39448;SDS011;25151;45.566;9.382;2023-09-19T00:01:22;5.70;;;3.30;;
39448;SDS011;25151;45.566;9.382;2023-09-19T00:03:54;5.70;;;3.22;;
39448;SDS011;25151;45.566;9.382;2023-09-19T00:06:28;6.35;;;3.08;;
39448;SDS011;25151;45.566;9.382;2023-09-19T00:08:58;4.78;;;2.97;;
39448;SDS011;25151;45.566;9.382;2023-09-19T00:11:25;4.72;;;3.63;;
39448;SDS011;25151;45.566;9.382;2023-09-19T00:13:57;7.80;;;3.25;;
39448;SDS011;25151;45.566;9.382;2023-09-19T00:16:29;6.00;;;3.47;;
39448;SDS011;25151;45.566;9.382;2023-09-19T00:19:02;3.50;;;2.92;;
39448;SDS011;25151;45.566;9.382;2023-09-19T00:21:39;7.55;;;3.53;;
39448;SDS011;25151;45.566;9.382;2023-09-19T00:24:15;5.53;;;3.35;;
39448;SDS011;25151;45.566;9.382;2023-09-19T00:26:48;4.38;;;3.22;;
39448;SDS011;25151;45.566;9.382;2023-09-19T00:29:21;5.25;;;3.08;;
39448;SDS011;25151;45.566;9.382;2023-09-19T00:31:56;5.05;;;2.70;;
39448;SDS011;25151;45.566;9.382;2023-09-19T00:34:28;5.95;;;3.38;;
39448;SDS011;25151;45.566;9.382;2023-09-19T00:36:59;3.95;;;2.50;;
39448;SDS011;25151;45.566;9.382;2023-09-19T00:39:34;5.10;;;2.85;;
39448;SDS011;25151;45.566;9.382;2023-09-19T00:42:06;4.45;;;3.20;;
39448;SDS011;25151;45.566;9.382;2023-09-19T00:44:35;5.70;;;3.00;;
39448;SDS011;25151;45.566;9.382;2023-09-19T00:47:11;3.78;;;2.88;;
39448;SDS011;25151;45.566;9.382;2023-09-19T00:49:45;4.30;;;2.90;;
39448;SDS011;25151;45.566;9.382;2023-09-19T00:52:18;5.95;;;3.05;;
39448;SDS011;25151;45.566;9.382;2023-09-19T00:54:51;4.18;;;2.85;;
39448;SDS011;25151;45.566;9.382;2023-09-19T00:57:18;4.68;;;2.92;;
39448;SDS011;25151;45.566;9.382;2023-09-19T00:59:48;4.38;;;2.92;;
39448;SDS011;25151;45.566;9.382;2023-09-19T01:02:19;6.38;;;3.25;;
39448;SDS011;25151;45.566;9.382;2023-09-19T01:04:51;4.97;;;2.85;;
39448;SDS011;25151;45.566;9.382;2023-09-19T01:07:21;5.38;;;3.33;;
39448;SDS011;25151;45.566;9.382;2023-09-19T01:09:55;3.67;;;2.58;;
39448;SDS011;25151;45.566;9.382;2023-09-19T01:12:33;5.82;;;3.03;;
39448;SDS011;25151;45.566;9.382;2023-09-19T01:15:28;4.80;;;2.70;;
39448;SDS011;25151;45.566;9.382;2023-09-19T01:32:11;3.42;;;2.88;;
39448;SDS011;25151;45.566;9.382;2023-09-19T01:34:49;4.78;;;3.17;;
39448;SDS011;25151;45.566;9.382;2023-09-19T01:37:26;3.67;;;2.72;;
39448;SDS011;25151;45.566;9.382;2023-09-19T01:40:06;4.32;;;3.20;;
39448;SDS011;25151;45.566;9.382;2023-09-19T01:42:58;3.42;;;2.60;;
39448;SDS011;25151;45.566;9.382;2023-09-19T01:48:26;2.90;;;2.47;;
39448;SDS011;25151;45.566;9.382;2023-09-19T01:51:07;4.47;;;2.80;;
39448;SDS011;25151;45.566;9.382;2023-09-19T01:54:00;6.40;;;2.83;;
39448;SDS011;25151;45.566;9.382;2023-09-19T01:56:57;3.20;;;2.28;;
39448;SDS011;25151;45.566;9.382;2023-09-19T01:59:37;3.45;;;2.80;;
39448;SDS011;25151;45.566;9.382;2023-09-19T02:02:08;4.53;;;2.90;;
39448;SDS011;25151;45.566;9.382;2023-09-19T02:04:38;5.28;;;2.60;;
39448;SDS011;25151;45.566;9.382;2023-09-19T02:07:05;3.80;;;2.30;;
39448;SDS011;25151;45.566;9.382;2023-09-19T02:09:33;5.20;;;2.65;;
39448;SDS011;25151;45.566;9.382;2023-09-19T02:12:08;3.88;;;2.72;;
39448;SDS011;25151;45.566;9.382;2023-09-19T02:14:38;3.15;;;2.10;;
39448;SDS011;25151;45.566;9.382;2023-09-19T02:17:10;4.18;;;2.45;;
39448;SDS011;25151;45.566;9.382;2023-09-19T02:19:41;5.75;;;2.95;;
39448;SDS011;25151;45.566;9.382;2023-09-19T02:22:13;4.63;;;2.73;;
39448;SDS011;25151;45.566;9.382;2023-09-19T02:24:51;3.78;;;2.63;;
39448;SDS011;25151;45.566;9.382;2023-09-19T02:27:25;5.30;;;2.40;;
39448;SDS011;25151;45.566;9.382;2023-09-19T02:29:52;2.80;;;2.10;;
39448;SDS011;25151;45.566;9.382;2023-09-19T02:32:23;4.65;;;2.50;;
39448;SDS011;25151;45.566;9.382;2023-09-19T02:35:00;3.70;;;2.92;;
39448;SDS011;25151;45.566;9.382;2023-09-19T02:37:32;5.60;;;3.00;;
39448;SDS011;25151;45.566;9.382;2023-09-19T02:40:04;4.07;;;2.58;;
39448;SDS011;25151;45.566;9.382;2023-09-19T02:42:46;4.63;;;2.80;;
39448;SDS011;25151;45.566;9.382;2023-09-19T02:45:24;2.78;;;2.20;;
39448;SDS011;25151;45.566;9.382;2023-09-19T02:47:53;3.60;;;2.25;;
39448;SDS011;25151;45.566;9.382;2023-09-19T02:50:26;3.28;;;2.35;;
39448;SDS011;25151;45.566;9.382;2023-09-19T02:52:59;4.35;;;2.30;;
39448;SDS011;25151;45.566;9.382;2023-09-19T02:55:31;3.45;;;2.55;;
39448;SDS011;25151;45.566;9.382;2023-09-19T02:57:59;4.28;;;2.72;;
39448;SDS011;25151;45.566;9.382;2023-09-19T03:00:33;4.70;;;2.85;;
39448;SDS011;25151;45.566;9.382;2023-09-19T03:03:12;4.33;;;2.53;;
39448;SDS011;25151;45.566;9.382;2023-09-19T03:05:42;4.22;;;2.30;;
39448;SDS011;25151;45.566;9.382;2023-09-19T03:08:15;3.97;;;2.75;;
39448;SDS011;25151;45.566;9.382;2023-09-19T03:10:48;3.45;;;2.28;;
39448;SDS011;25151;45.566;9.382;2023-09-19T03:13:18;2.92;;;2.30;;
39448;SDS011;25151;45.566;9.382;2023-09-19T03:15:45;4.63;;;2.58;;
39448;SDS011;25151;45.566;9.382;2023-09-19T03:18:20;2.95;;;2.15;;
39448;SDS011;25151;45.566;9.382;2023-09-19T03:20:57;4.03;;;2.50;;
39448;SDS011;25151;45.566;9.382;2023-09-19T03:23:35;4.82;;;3.05;;
39448;SDS011;25151;45.566;9.382;2023-09-19T03:26:06;4.82;;;2.40;;
39448;SDS011;25151;45.566;9.382;2023-09-19T03:28:37;3.55;;;2.15;;
39448;SDS011;25151;45.566;9.382;2023-09-19T03:31:11;4.10;;;2.30;;
39448;SDS011;25151;45.566;9.382;2023-09-19T03:33:43;3.20;;;2.00;;
39448;SDS011;25151;45.566;9.382;2023-09-19T03:36:13;3.10;;;2.25;;
39448;SDS011;25151;45.566;9.382;2023-09-19T03:38:48;2.97;;;1.98;;
39448;SDS011;25151;45.566;9.382;2023-09-19T03:41:18;5.03;;;2.60;;
39448;SDS011;25151;45.566;9.382;2023-09-19T03:43:47;2.70;;;1.92;;
39448;SDS011;25151;45.566;9.382;2023-09-19T03:46:17;3.10;;;2.28;;
39448;SDS011;25151;45.566;9.382;2023-09-19T03:48:49;4.65;;;2.30;;
39448;SDS011;25151;45.566;9.382;2023-09-19T03:51:16;3.45;;;2.47;;
39448;SDS011;25151;45.566;9.382;2023-09-19T03:53:46;2.42;;;2.22;;
39448;SDS011;25151;45.566;9.382;2023-09-19T03:56:16;3.10;;;1.90;;
39448;SDS011;25151;45.566;9.382;2023-09-19T03:58:51;3.17;;;2.20;;
39448;SDS011;25151;45.566;9.382;2023-09-19T04:01:20;3.60;;;2.38;;
39448;SDS011;25151;45.566;9.382;2023-09-19T04:03:55;2.83;;;2.00;;
39448;SDS011;25151;45.566;9.382;2023-09-19T04:09:05;3.20;;;2.00;;
39448;SDS011;25151;45.566;9.382;2023-09-19T04:11:40;5.50;;;2.30;;
39448;SDS011;25151;45.566;9.382;2023-09-19T04:14:15;4.10;;;2.50;;
39448;SDS011;25151;45.566;9.382;2023-09-19T04:16:44;4.55;;;2.47;;
39448;SDS011;25151;45.566;9.382;2023-09-19T04:19:18;2.80;;;2.20;;
39448;SDS011;25151;45.566;9.382;2023-09-19T04:21:57;3.40;;;2.42;;
39448;SDS011;25151;45.566;9.382;2023-09-19T04:24:27;3.30;;;2.17;;
39448;SDS011;25151;45.566;9.382;2023-09-19T04:26:57;4.15;;;2.33;;
39448;SDS011;25151;45.566;9.382;2023-09-19T04:29:27;3.33;;;2.13;;
39448;SDS011;25151;45.566;9.382;2023-09-19T04:31:57;3.17;;;2.03;;
39448;SDS011;25151;45.566;9.382;2023-09-19T04:34:23;2.88;;;2.05;;
39448;SDS011;25151;45.566;9.382;2023-09-19T04:36:53;2.85;;;2.13;;
39448;SDS011;25151;45.566;9.382;2023-09-19T04:39:26;3.42;;;2.30;;
39448;SDS011;25151;45.566;9.382;2023-09-19T04:41:55;3.03;;;2.15;;
39448;SDS011;25151;45.566;9.382;2023-09-19T04:44:26;3.08;;;2.10;;
39448;SDS011;25151;45.566;9.382;2023-09-19T04:46:53;2.45;;;2.10;;
39448;SDS011;25151;45.566;9.382;2023-09-19T04:49:22;3.30;;;2.40;;
39448;SDS011;25151;45.566;9.382;2023-09-19T04:51:52;2.90;;;2.05;;
39448;SDS011;25151;45.566;9.382;2023-09-19T04:54:25;4.88;;;2.45;;
39448;SDS011;25151;45.566;9.382;2023-09-19T04:56:57;3.50;;;1.98;;
39448;SDS011;25151;45.566;9.382;2023-09-19T04:59:24;2.55;;;1.92;;
39448;SDS011;25151;45.566;9.382;2023-09-19T05:01:57;4.60;;;2.28;;
39448;SDS011;25151;45.566;9.382;2023-09-19T05:04:29;3.60;;;2.08;;
39448;SDS011;25151;45.566;9.382;2023-09-19T05:06:58;3.30;;;1.98;;
39448;SDS011;25151;45.566;9.382;2023-09-19T05:14:28;2.42;;;1.92;;
39448;SDS011;25151;45.566;9.382;2023-09-19T05:17:01;3.90;;;2.63;;
39448;SDS011;25151;45.566;9.382;2023-09-19T05:19:38;4.18;;;1.70;;
39448;SDS011;25151;45.566;9.382;2023-09-19T05:22:07;3.78;;;2.05;;
39448;SDS011;25151;45.566;9.382;2023-09-19T05:24:42;3.53;;;1.90;;
39448;SDS011;25151;45.566;9.382;2023-09-19T05:27:13;3.95;;;2.20;;
39448;SDS011;25151;45.566;9.382;2023-09-19T05:29:45;2.67;;;2.20;;
39448;SDS011;25151;45.566;9.382;2023-09-19T05:32:17;5.28;;;2.75;;
39448;SDS011;25151;45.566;9.382;2023-09-19T05:34:45;3.15;;;2.20;;
39448;SDS011;25151;45.566;9.382;2023-09-19T05:37:36;9.18;;;2.05;;
39448;SDS011;25151;45.566;9.382;2023-09-19T05:40:05;2.83;;;2.13;;
39448;SDS011;25151;45.566;9.382;2023-09-19T05:42:38;4.28;;;2.10;;
39448;SDS011;25151;45.566;9.382;2023-09-19T05:45:11;4.50;;;1.75;;
39448;SDS011;25151;45.566;9.382;2023-09-19T05:47:50;3.38;;;1.98;;
39448;SDS011;25151;45.566;9.382;2023-09-19T05:50:23;2.97;;;1.55;;
39448;SDS011;25151;45.566;9.382;2023-09-19T05:53:00;3.13;;;1.95;;
39448;SDS011;25151;45.566;9.382;2023-09-19T05:55:36;4.18;;;1.73;;
39448;SDS011;25151;45.566;9.382;2023-09-19T05:58:06;3.38;;;2.03;;
39448;SDS011;25151;45.566;9.382;2023-09-19T06:00:40;4.22;;;1.70;;
39448;SDS011;25151;45.566;9.382;2023-09-19T06:03:12;3.10;;;2.00;;
39448;SDS011;25151;45.566;9.382;2023-09-19T06:05:44;2.95;;;1.60;;
39448;SDS011;25151;45.566;9.382;2023-09-19T06:08:13;6.53;;;1.95;;
39448;SDS011;25151;45.566;9.382;2023-09-19T06:10:44;3.78;;;2.03;;
39448;SDS011;25151;45.566;9.382;2023-09-19T06:13:14;5.10;;;2.03;;
39448;SDS011;25151;45.566;9.382;2023-09-19T06:15:45;6.20;;;2.30;;
39448;SDS011;25151;45.566;9.382;2023-09-19T06:18:15;4.47;;;1.88;;
39448;SDS011;25151;45.566;9.382;2023-09-19T06:20:47;3.78;;;1.95;;
39448;SDS011;25151;45.566;9.382;2023-09-19T06:23:20;2.92;;;1.73;;
39448;SDS011;25151;45.566;9.382;2023-09-19T06:25:54;5.03;;;2.00;;
39448;SDS011;25151;45.566;9.382;2023-09-19T06:28:29;7.80;;;4.45;;
39448;SDS011;25151;45.566;9.382;2023-09-19T06:31:02;8.02;;;3.42;;
39448;SDS011;25151;45.566;9.382;2023-09-19T06:33:37;8.48;;;3.70;;
39448;SDS011;25151;45.566;9.382;2023-09-19T06:36:08;6.35;;;2.60;;
39448;SDS011;25151;45.566;9.382;2023-09-19T06:38:45;6.45;;;3.00;;
39448;SDS011;25151;45.566;9.382;2023-09-19T06:41:21;7.25;;;3.13;;
39448;SDS011;25151;45.566;9.382;2023-09-19T06:43:50;4.75;;;2.63;;
39448;SDS011;25151;45.566;9.382;2023-09-19T06:46:21;5.93;;;2.72;;
39448;SDS011;25151;45.566;9.382;2023-09-19T06:48:57;4.10;;;2.22;;
39448;SDS011;25151;45.566;9.382;2023-09-19T06:51:31;7.15;;;2.80;;
39448;SDS011;25151;45.566;9.382;2023-09-19T06:54:08;6.40;;;2.90;;
39448;SDS011;25151;45.566;9.382;2023-09-19T06:56:36;5.43;;;2.70;;
39448;SDS011;25151;45.566;9.382;2023-09-19T06:59:02;6.18;;;2.53;;
39448;SDS011;25151;45.566;9.382;2023-09-19T07:01:33;5.40;;;2.20;;
39448;SDS011;25151;45.566;9.382;2023-09-19T07:04:09;6.53;;;2.50;;
39448;SDS011;25151;45.566;9.382;2023-09-19T07:06:42;5.10;;;2.42;;
39448;SDS011;25151;45.566;9.382;2023-09-19T07:09:15;5.13;;;2.65;;
39448;SDS011;25151;45.566;9.382;2023-09-19T07:11:49;6.18;;;3.00;;
39448;SDS011;25151;45.566;9.382;2023-09-19T07:14:16;7.72;;;2.50;;
39448;SDS011;25151;45.566;9.382;2023-09-19T07:16:46;7.53;;;2.70;;
39448;SDS011;25151;45.566;9.382;2023-09-19T07:19:15;6.30;;;2.92;;
39448;SDS011;25151;45.566;9.382;2023-09-19T07:21:50;6.47;;;2.38;;
39448;SDS011;25151;45.566;9.382;2023-09-19T07:24:22;4.38;;;2.45;;
39448;SDS011;25151;45.566;9.382;2023-09-19T07:26:52;6.97;;;3.05;;
39448;SDS011;25151;45.566;9.382;2023-09-19T07:29:18;6.18;;;3.00;;
39448;SDS011;25151;45.566;9.382;2023-09-19T07:31:51;7.70;;;2.80;;
39448;SDS011;25151;45.566;9.382;2023-09-19T07:34:26;7.05;;;2.70;;
39448;SDS011;25151;45.566;9.382;2023-09-19T07:36:57;6.72;;;2.90;;
39448;SDS011;25151;45.566;9.382;2023-09-19T07:39:28;5.80;;;2.58;;
39448;SDS011;25151;45.566;9.382;2023-09-19T07:42:03;6.72;;;3.08;;
39448;SDS011;25151;45.566;9.382;2023-09-19T07:44:32;7.63;;;2.80;;
39448;SDS011;25151;45.566;9.382;2023-09-19T07:47:04;6.18;;;2.78;;
39448;SDS011;25151;45.566;9.382;2023-09-19T07:49:41;6.60;;;3.08;;
39448;SDS011;25151;45.566;9.382;2023-09-19T07:52:10;5.93;;;2.78;;
39448;SDS011;25151;45.566;9.382;2023-09-19T07:54:39;4.60;;;2.60;;
39448;SDS011;25151;45.566;9.382;2023-09-19T07:57:06;7.93;;;3.28;;
39448;SDS011;25151;45.566;9.382;2023-09-19T07:59:36;7.07;;;2.58;;
39448;SDS011;25151;45.566;9.382;2023-09-19T08:02:11;8.52;;;2.25;;
39448;SDS011;25151;45.566;9.382;2023-09-19T08:04:43;5.15;;;2.83;;
39448;SDS011;25151;45.566;9.382;2023-09-19T08:07:17;11.23;;;2.63;;
39448;SDS011;25151;45.566;9.382;2023-09-19T08:09:44;5.72;;;2.70;;
39448;SDS011;25151;45.566;9.382;2023-09-19T08:12:16;5.87;;;2.73;;
39448;SDS011;25151;45.566;9.382;2023-09-19T08:14:48;5.30;;;2.70;;
39448;SDS011;25151;45.566;9.382;2023-09-19T08:17:17;5.18;;;2.67;;
39448;SDS011;25151;45.566;9.382;2023-09-19T08:19:53;4.70;;;2.90;;
39448;SDS011;25151;45.566;9.382;2023-09-19T08:22:23;6.65;;;2.80;;
39448;SDS011;25151;45.566;9.382;2023-09-19T08:24:50;7.63;;;3.00;;
39448;SDS011;25151;45.566;9.382;2023-09-19T08:27:21;7.38;;;3.35;;
39448;SDS011;25151;45.566;9.382;2023-09-19T08:29:52;6.95;;;3.00;;
39448;SDS011;25151;45.566;9.382;2023-09-19T08:35:23;8.15;;;3.10;;
39448;SDS011;25151;45.566;9.382;2023-09-19T08:37:53;4.65;;;2.22;;
39448;SDS011;25151;45.566;9.382;2023-09-19T08:40:23;7.28;;;2.95;;
39448;SDS011;25151;45.566;9.382;2023-09-19T08:42:58;6.18;;;3.00;;
39448;SDS011;25151;45.566;9.382;2023-09-19T08:45:26;7.28;;;2.50;;
39448;SDS011;25151;45.566;9.382;2023-09-19T08:50:43;7.70;;;2.67;;
39448;SDS011;25151;45.566;9.382;2023-09-19T08:53:21;7.75;;;2.90;;
39448;SDS011;25151;45.566;9.382;2023-09-19T08:56:12;5.53;;;3.08;;
39448;SDS011;25151;45.566;9.382;2023-09-19T08:58:51;6.60;;;2.83;;
39448;SDS011;25151;45.566;9.382;2023-09-19T09:01:28;9.63;;;2.78;;
39448;SDS011;25151;45.566;9.382;2023-09-19T09:03:57;7.40;;;3.22;;
39448;SDS011;25151;45.566;9.382;2023-09-19T09:06:24;6.03;;;2.38;;
39448;SDS011;25151;45.566;9.382;2023-09-19T09:08:53;5.90;;;3.00;;
39448;SDS011;25151;45.566;9.382;2023-09-19T09:11:19;5.53;;;2.83;;
39448;SDS011;25151;45.566;9.382;2023-09-19T09:13:50;7.55;;;3.00;;
39448;SDS011;25151;45.566;9.382;2023-09-19T09:16:18;7.60;;;2.42;;
39448;SDS011;25151;45.566;9.382;2023-09-19T09:18:45;6.53;;;2.60;;
39448;SDS011;25151;45.566;9.382;2023-09-19T09:21:25;6.05;;;2.85;;
39448;SDS011;25151;45.566;9.382;2023-09-19T09:23:52;7.00;;;3.13;;
39448;SDS011;25151;45.566;9.382;2023-09-19T09:29:07;6.68;;;2.83;;
39448;SDS011;25151;45.566;9.382;2023-09-19T09:31:35;7.50;;;3.42;;
39448;SDS011;25151;45.566;9.382;2023-09-19T09:34:06;6.40;;;2.70;;
39448;SDS011;25151;45.566;9.382;2023-09-19T09:36:35;6.65;;;2.38;;
39448;SDS011;25151;45.566;9.382;2023-09-19T09:39:03;8.73;;;2.80;;
39448;SDS011;25151;45.566;9.382;2023-09-19T09:41:52;4.57;;;2.60;;
39448;SDS011;25151;45.566;9.382;2023-09-19T09:44:26;5.75;;;3.17;;
39448;SDS011;25151;45.566;9.382;2023-09-19T09:47:00;7.72;;;2.90;;
39448;SDS011;25151;45.566;9.382;2023-09-19T09:50:00;7.15;;;2.72;;
39448;SDS011;25151;45.566;9.382;2023-09-19T09:52:48;8.98;;;3.60;;
39448;SDS011;25151;45.566;9.382;2023-09-19T09:55:20;5.65;;;3.17;;
39448;SDS011;25151;45.566;9.382;2023-09-19T09:57:49;4.72;;;2.65;;
39448;SDS011;25151;45.566;9.382;2023-09-19T10:00:53;4.68;;;2.55;;
39448;SDS011;25151;45.566;9.382;2023-09-19T10:03:37;4.57;;;2.55;;
39448;SDS011;25151;45.566;9.382;2023-09-19T10:06:14;5.87;;;2.67;;
39448;SDS011;25151;45.566;9.382;2023-09-19T10:09:04;6.53;;;3.10;;
39448;SDS011;25151;45.566;9.382;2023-09-19T10:11:44;5.63;;;2.70;;
39448;SDS011;25151;45.566;9.382;2023-09-19T10:14:20;9.80;;;3.30;;
39448;SDS011;25151;45.566;9.382;2023-09-19T10:16:51;7.38;;;2.60;;
39448;SDS011;25151;45.566;9.382;2023-09-19T10:19:29;7.15;;;2.45;;
39448;SDS011;25151;45.566;9.382;2023-09-19T10:22:02;5.13;;;3.13;;
39448;SDS011;25151;45.566;9.382;2023-09-19T10:24:33;6.72;;;3.42;;
39448;SDS011;25151;45.566;9.382;2023-09-19T10:27:04;6.15;;;2.63;;
39448;SDS011;25151;45.566;9.382;2023-09-19T10:29:34;6.25;;;2.80;;
39448;SDS011;25151;45.566;9.382;2023-09-19T10:32:08;5.43;;;2.67;;
39448;SDS011;25151;45.566;9.382;2023-09-19T10:34:44;5.38;;;2.92;;
39448;SDS011;25151;45.566;9.382;2023-09-19T10:37:16;7.07;;;3.30;;
39448;SDS011;25151;45.566;9.382;2023-09-19T10:39:47;5.28;;;2.60;;
39448;SDS011;25151;45.566;9.382;2023-09-19T10:42:20;5.30;;;2.40;;
39448;SDS011;25151;45.566;9.382;2023-09-19T10:44:57;3.53;;;2.47;;
39448;SDS011;25151;45.566;9.382;2023-09-19T10:47:25;7.75;;;2.60;;
39448;SDS011;25151;45.566;9.382;2023-09-19T10:49:52;7.07;;;2.85;;
39448;SDS011;25151;45.566;9.382;2023-09-19T10:52:21;5.95;;;3.13;;
39448;SDS011;25151;45.566;9.382;2023-09-19T10:54:51;3.78;;;2.50;;
39448;SDS011;25151;45.566;9.382;2023-09-19T10:57:25;6.95;;;2.78;;
39448;SDS011;25151;45.566;9.382;2023-09-19T11:00:05;4.82;;;2.88;;
39448;SDS011;25151;45.566;9.382;2023-09-19T11:05:43;9.10;;;3.20;;
39448;SDS011;25151;45.566;9.382;2023-09-19T11:30:41;4.65;;;2.90;;
39448;SDS011;25151;45.566;9.382;2023-09-19T11:36:12;5.40;;;2.35;;
39448;SDS011;25151;45.566;9.382;2023-09-19T11:39:01;4.20;;;2.40;;
39448;SDS011;25151;45.566;9.382;2023-09-19T11:41:38;6.28;;;2.50;;
39448;SDS011;25151;45.566;9.382;2023-09-19T11:49:28;7.75;;;2.55;;
39448;SDS011;25151;45.566;9.382;2023-09-19T11:51:59;7.85;;;3.03;;
39448;SDS011;25151;45.566;9.382;2023-09-19T11:54:27;5.90;;;2.88;;
39448;SDS011;25151;45.566;9.382;2023-09-19T11:56:57;4.97;;;2.63;;
39448;SDS011;25151;45.566;9.382;2023-09-19T11:59:29;4.43;;;2.60;;
39448;SDS011;25151;45.566;9.382;2023-09-19T12:02:07;6.85;;;2.92;;
39448;SDS011;25151;45.566;9.382;2023-09-19T12:04:46;3.88;;;2.75;;
39448;SDS011;25151;45.566;9.382;2023-09-19T12:07:19;5.88;;;2.65;;
39448;SDS011;25151;45.566;9.382;2023-09-19T12:10:02;4.80;;;2.08;;
39448;SDS011;25151;45.566;9.382;2023-09-19T12:12:31;4.20;;;2.23;;
39448;SDS011;25151;45.566;9.382;2023-09-19T12:15:02;4.93;;;2.22;;
39448;SDS011;25151;45.566;9.382;2023-09-19T12:17:41;4.22;;;2.10;;
39448;SDS011;25151;45.566;9.382;2023-09-19T12:20:09;5.10;;;2.25;;
39448;SDS011;25151;45.566;9.382;2023-09-19T12:22:45;4.53;;;2.38;;
39448;SDS011;25151;45.566;9.382;2023-09-19T12:25:15;5.13;;;2.50;;
39448;SDS011;25151;45.566;9.382;2023-09-19T12:27:47;4.15;;;2.10;;
39448;SDS011;25151;45.566;9.382;2023-09-19T12:30:32;5.22;;;3.17;;
39448;SDS011;25151;45.566;9.382;2023-09-19T12:33:02;4.32;;;2.03;;
39448;SDS011;25151;45.566;9.382;2023-09-19T12:35:31;5.32;;;2.58;;
39448;SDS011;25151;45.566;9.382;2023-09-19T12:38:04;3.15;;;1.88;;
39448;SDS011;25151;45.566;9.382;2023-09-19T12:40:33;5.72;;;2.35;;
39448;SDS011;25151;45.566;9.382;2023-09-19T12:43:03;4.65;;;2.30;;
39448;SDS011;25151;45.566;9.382;2023-09-19T12:45:34;5.75;;;2.28;;
39448;SDS011;25151;45.566;9.382;2023-09-19T12:51:10;6.75;;;2.72;;
39448;SDS011;25151;45.566;9.382;2023-09-19T12:53:44;9.57;;;2.30;;
39448;SDS011;25151;45.566;9.382;2023-09-19T12:56:27;6.55;;;2.20;;
39448;SDS011;25151;45.566;9.382;2023-09-19T12:59:06;5.22;;;2.03;;
39448;SDS011;25151;45.566;9.382;2023-09-19T13:01:38;7.82;;;2.00;;
39448;SDS011;25151;45.566;9.382;2023-09-19T13:04:16;6.10;;;2.25;;
39448;SDS011;25151;45.566;9.382;2023-09-19T13:06:54;7.85;;;2.17;;
39448;SDS011;25151;45.566;9.382;2023-09-19T13:09:28;7.35;;;2.00;;
39448;SDS011;25151;45.566;9.382;2023-09-19T13:12:04;10.93;;;2.33;;
39448;SDS011;25151;45.566;9.382;2023-09-19T13:15:09;7.38;;;2.30;;
39448;SDS011;25151;45.566;9.382;2023-09-19T13:17:45;6.53;;;2.50;;
39448;SDS011;25151;45.566;9.382;2023-09-19T13:22:53;6.05;;;1.85;;
39448;SDS011;25151;45.566;9.382;2023-09-19T13:25:24;9.52;;;2.50;;
39448;SDS011;25151;45.566;9.382;2023-09-19T13:27:57;8.40;;;2.22;;
39448;SDS011;25151;45.566;9.382;2023-09-19T13:30:26;8.73;;;1.92;;
39448;SDS011;25151;45.566;9.382;2023-09-19T13:33:06;3.78;;;2.03;;
39448;SDS011;25151;45.566;9.382;2023-09-19T13:35:36;5.35;;;2.33;;
39448;SDS011;25151;45.566;9.382;2023-09-19T13:38:05;4.53;;;1.77;;
39448;SDS011;25151;45.566;9.382;2023-09-19T13:40:38;6.20;;;2.20;;
39448;SDS011;25151;45.566;9.382;2023-09-19T13:45:39;3.55;;;2.03;;
39448;SDS011;25151;45.566;9.382;2023-09-19T13:48:11;4.40;;;2.10;;
39448;SDS011;25151;45.566;9.382;2023-09-19T13:50:41;3.63;;;2.03;;
39448;SDS011;25151;45.566;9.382;2023-09-19T13:53:11;3.83;;;1.95;;
39448;SDS011;25151;45.566;9.382;2023-09-19T13:55:39;3.60;;;1.80;;
39448;SDS011;25151;45.566;9.382;2023-09-19T13:58:09;2.15;;;1.60;;
39448;SDS011;25151;45.566;9.382;2023-09-19T14:00:38;4.93;;;2.28;;
39448;SDS011;25151;45.566;9.382;2023-09-19T14:03:05;4.45;;;2.00;;
39448;SDS011;25151;45.566;9.382;2023-09-19T14:05:32;3.03;;;1.92;;
39448;SDS011;25151;45.566;9.382;2023-09-19T14:08:04;5.88;;;2.20;;
39448;SDS011;25151;45.566;9.382;2023-09-19T14:10:37;3.33;;;2.20;;
39448;SDS011;25151;45.566;9.382;2023-09-19T14:13:03;4.70;;;1.98;;
39448;SDS011;25151;45.566;9.382;2023-09-19T14:15:29;7.03;;;2.00;;
39448;SDS011;25151;45.566;9.382;2023-09-19T14:17:57;7.93;;;2.40;;
39448;SDS011;25151;45.566;9.382;2023-09-19T14:20:28;5.03;;;1.95;;
39448;SDS011;25151;45.566;9.382;2023-09-19T14:22:56;6.60;;;2.10;;
39448;SDS011;25151;45.566;9.382;2023-09-19T14:25:30;2.95;;;2.05;;
39448;SDS011;25151;45.566;9.382;2023-09-19T14:27:59;4.18;;;2.10;;
39448;SDS011;25151;45.566;9.382;2023-09-19T14:30:25;5.07;;;2.95;;
39448;SDS011;25151;45.566;9.382;2023-09-19T14:32:54;5.10;;;2.22;;
39448;SDS011;25151;45.566;9.382;2023-09-19T14:35:23;6.05;;;2.35;;
39448;SDS011;25151;45.566;9.382;2023-09-19T14:37:50;3.83;;;1.95;;
39448;SDS011;25151;45.566;9.382;2023-09-19T14:40:18;5.45;;;2.20;;
39448;SDS011;25151;45.566;9.382;2023-09-19T14:42:48;5.82;;;2.50;;
39448;SDS011;25151;45.566;9.382;2023-09-19T14:45:16;3.42;;;1.70;;
39448;SDS011;25151;45.566;9.382;2023-09-19T14:47:45;3.60;;;2.08;;
39448;SDS011;25151;45.566;9.382;2023-09-19T14:50:13;3.65;;;2.28;;
39448;SDS011;25151;45.566;9.382;2023-09-19T14:52:40;5.53;;;1.75;;
39448;SDS011;25151;45.566;9.382;2023-09-19T14:55:07;2.72;;;1.98;;
39448;SDS011;25151;45.566;9.382;2023-09-19T14:57:42;4.35;;;2.00;;
39448;SDS011;25151;45.566;9.382;2023-09-19T15:00:18;4.90;;;2.25;;
39448;SDS011;25151;45.566;9.382;2023-09-19T15:02:49;4.03;;;1.85;;
39448;SDS011;25151;45.566;9.382;2023-09-19T15:05:46;3.60;;;2.00;;
39448;SDS011;25151;45.566;9.382;2023-09-19T15:08:13;2.97;;;1.95;;
39448;SDS011;25151;45.566;9.382;2023-09-19T15:10:39;4.40;;;1.98;;
39448;SDS011;25151;45.566;9.382;2023-09-19T15:13:07;4.40;;;2.05;;
39448;SDS011;25151;45.566;9.382;2023-09-19T15:15:34;3.78;;;1.95;;
39448;SDS011;25151;45.566;9.382;2023-09-19T15:18:03;5.70;;;2.40;;
39448;SDS011;25151;45.566;9.382;2023-09-19T15:20:42;4.57;;;1.77;;
39448;SDS011;25151;45.566;9.382;2023-09-19T15:23:13;3.58;;;1.90;;
39448;SDS011;25151;45.566;9.382;2023-09-19T15:25:50;5.20;;;2.10;;
39448;SDS011;25151;45.566;9.382;2023-09-19T15:28:16;3.53;;;1.58;;
39448;SDS011;25151;45.566;9.382;2023-09-19T15:30:48;3.75;;;1.70;;
39448;SDS011;25151;45.566;9.382;2023-09-19T15:33:15;3.08;;;1.80;;
39448;SDS011;25151;45.566;9.382;2023-09-19T15:35:47;5.53;;;2.05;;
39448;SDS011;25151;45.566;9.382;2023-09-19T15:38:14;5.82;;;1.95;;
39448;SDS011;25151;45.566;9.382;2023-09-19T15:40:47;5.45;;;2.22;;
39448;SDS011;25151;45.566;9.382;2023-09-19T15:43:13;4.53;;;1.90;;
39448;SDS011;25151;45.566;9.382;2023-09-19T15:45:42;4.03;;;2.10;;
39448;SDS011;25151;45.566;9.382;2023-09-19T15:48:08;5.03;;;1.92;;
39448;SDS011;25151;45.566;9.382;2023-09-19T15:50:36;3.15;;;1.70;;
39448;SDS011;25151;45.566;9.382;2023-09-19T15:53:11;3.53;;;1.73;;
39448;SDS011;25151;45.566;9.382;2023-09-19T15:55:42;3.75;;;2.03;;
39448;SDS011;25151;45.566;9.382;2023-09-19T15:58:10;4.78;;;2.50;;
39448;SDS011;25151;45.566;9.382;2023-09-19T16:00:40;4.35;;;2.00;;
39448;SDS011;25151;45.566;9.382;2023-09-19T16:03:16;4.57;;;2.00;;
39448;SDS011;25151;45.566;9.382;2023-09-19T16:05:47;4.07;;;1.45;;
39448;SDS011;25151;45.566;9.382;2023-09-19T16:08:17;3.08;;;1.58;;
39448;SDS011;25151;45.566;9.382;2023-09-19T16:10:49;4.45;;;1.58;;
39448;SDS011;25151;45.566;9.382;2023-09-19T16:13:17;3.85;;;1.75;;
39448;SDS011;25151;45.566;9.382;2023-09-19T16:15:50;3.05;;;1.80;;
39448;SDS011;25151;45.566;9.382;2023-09-19T16:18:25;3.17;;;1.67;;
39448;SDS011;25151;45.566;9.382;2023-09-19T16:21:04;2.58;;;1.80;;
39448;SDS011;25151;45.566;9.382;2023-09-19T16:23:33;3.45;;;1.60;;
39448;SDS011;25151;45.566;9.382;2023-09-19T16:26:05;4.57;;;1.80;;
39448;SDS011;25151;45.566;9.382;2023-09-19T16:28:38;3.47;;;1.48;;
39448;SDS011;25151;45.566;9.382;2023-09-19T16:31:06;4.40;;;2.00;;
39448;SDS011;25151;45.566;9.382;2023-09-19T16:33:37;3.97;;;1.80;;
39448;SDS011;25151;45.566;9.382;2023-09-19T16:36:08;3.00;;;1.73;;